createdAt,value
2018-03-26T00:00:47.929Z,22.17
2018-03-26T00:01:51.187Z,22.77
2018-03-26T00:02:54.451Z,22.23
2018-03-26T00:03:57.678Z,24.35
2018-03-26T00:05:00.936Z,23.87
2018-03-26T00:06:04.164Z,24.10
2018-03-26T00:07:07.384Z,23.73
2018-03-26T00:08:10.672Z,23.33
2018-03-26T00:09:13.920Z,23.12
2018-03-26T00:10:17.143Z,23.83
2018-03-26T00:11:20.361Z,24.40
2018-03-26T00:12:24.416Z,22.40
2018-03-26T00:13:27.706Z,23.48
2018-03-26T00:14:30.918Z,23.17
2018-03-26T00:15:34.134Z,21.55
2018-03-26T00:16:38.143Z,22.45
2018-03-26T00:17:41.452Z,23.25
2018-03-26T00:18:44.674Z,23.35
2018-03-26T00:19:47.958Z,22.52
2018-03-26T00:20:51.203Z,22.77
2018-03-26T00:21:54.437Z,22.13
2018-03-26T00:22:57.654Z,22.62
2018-03-26T00:24:00.868Z,21.23
2018-03-26T00:25:04.083Z,22.30
2018-03-26T00:26:07.301Z,22.37
2018-03-26T00:27:11.390Z,22.15
2018-03-26T00:28:14.647Z,23.83
2018-03-26T00:29:17.853Z,22.05
2018-03-26T00:30:21.915Z,23.38
2018-03-26T00:31:25.146Z,24.20
2018-03-26T00:32:29.131Z,21.75
2018-03-26T00:33:32.341Z,22.00
2018-03-26T00:34:35.615Z,22.27
2018-03-26T00:35:39.620Z,22.42
2018-03-26T00:36:43.602Z,21.25
2018-03-26T00:37:47.595Z,22.87
2018-03-26T00:38:50.900Z,21.08
2018-03-26T00:39:54.884Z,21.98
2018-03-26T00:40:58.129Z,20.05
2018-03-26T00:42:01.437Z,21.67
2018-03-26T00:43:04.702Z,19.55
2018-03-26T00:44:07.917Z,19.70
2018-03-26T00:45:11.157Z,22.37
2018-03-26T00:46:14.376Z,21.30
2018-03-26T00:47:17.788Z,20.17
2018-03-26T00:48:21.775Z,22.95
2018-03-26T00:49:25.809Z,23.30
2018-03-26T00:50:29.006Z,20.27
2018-03-26T00:51:32.232Z,22.23
2018-03-26T00:52:35.740Z,23.48
2018-03-26T00:53:43.906Z,22.30
2018-03-26T00:54:47.134Z,21.77
2018-03-26T00:55:50.393Z,21.75
2018-03-26T00:56:54.403Z,22.15
2018-03-26T00:57:57.669Z,24.75
2018-03-26T00:59:01.031Z,24.30
2018-03-26T01:00:04.293Z,24.08
2018-03-26T01:01:07.505Z,23.30
2018-03-26T01:02:10.730Z,22.85
2018-03-26T01:03:13.949Z,22.98
2018-03-26T01:04:17.169Z,24.63
2018-03-26T01:05:21.212Z,23.05
2018-03-26T01:06:25.216Z,23.73
2018-03-26T01:07:28.432Z,24.23
2018-03-26T01:08:31.649Z,24.95
2018-03-26T01:09:35.638Z,23.62
2018-03-26T01:10:38.862Z,26.00
2018-03-26T01:11:42.074Z,22.27
2018-03-26T01:12:45.281Z,24.42
2018-03-26T01:13:48.524Z,24.37
2018-03-26T01:14:51.749Z,24.23
2018-03-26T01:15:55.047Z,25.40
2018-03-26T01:16:58.259Z,21.42
2018-03-26T01:18:01.476Z,25.02
2018-03-26T01:19:04.748Z,25.20
2018-03-26T01:20:07.987Z,24.40
2018-03-26T01:21:11.208Z,25.62
2018-03-26T01:22:14.420Z,24.75
2018-03-26T01:23:17.653Z,25.98
2018-03-26T01:24:20.938Z,24.25
2018-03-26T01:25:24.140Z,23.92
2018-03-26T01:26:27.401Z,23.20
2018-03-26T01:27:30.619Z,24.77
2018-03-26T01:28:33.828Z,23.77
2018-03-26T01:29:37.862Z,26.17
2018-03-26T01:30:41.085Z,24.00
2018-03-26T01:31:44.289Z,24.52
2018-03-26T01:32:47.508Z,25.75
2018-03-26T01:33:50.723Z,24.70
2018-03-26T01:34:53.957Z,25.10
2018-03-26T01:35:58.015Z,24.60
2018-03-26T01:37:01.220Z,24.80
2018-03-26T01:38:05.272Z,25.52
2018-03-26T01:39:08.526Z,24.40
2018-03-26T01:40:12.512Z,23.85
2018-03-26T01:41:16.502Z,24.85
2018-03-26T01:42:19.774Z,25.08
2018-03-26T01:43:22.986Z,25.55
2018-03-26T01:44:26.989Z,25.40
2018-03-26T01:45:30.996Z,26.85
2018-03-26T01:46:34.988Z,24.35
2018-03-26T01:47:38.980Z,24.20
2018-03-26T01:48:42.284Z,24.90
2018-03-26T01:49:45.504Z,25.65
2018-03-26T01:50:48.725Z,24.65
2018-03-26T01:51:52.725Z,25.48
2018-03-26T01:52:55.941Z,25.37
2018-03-26T01:53:59.165Z,25.75
2018-03-26T01:55:02.380Z,26.48
2018-03-26T01:56:06.349Z,26.20
2018-03-26T01:57:09.609Z,25.65
2018-03-26T01:58:12.868Z,27.13
2018-03-26T01:59:16.073Z,27.52
2018-03-26T02:00:19.310Z,26.20
2018-03-26T02:01:23.304Z,24.98
2018-03-26T02:02:27.280Z,26.40
2018-03-26T02:03:30.511Z,24.98
2018-03-26T02:04:34.524Z,24.50
2018-03-26T02:05:38.534Z,25.70
2018-03-26T02:06:41.779Z,27.75
2018-03-26T02:07:45.772Z,24.37
2018-03-26T02:08:49.761Z,26.50
2018-03-26T02:09:53.000Z,26.27
2018-03-26T02:10:56.988Z,27.60
2018-03-26T02:12:00.959Z,25.30
2018-03-26T02:13:04.949Z,26.23
2018-03-26T02:14:08.171Z,29.05
2018-03-26T02:15:11.402Z,25.95
2018-03-26T02:16:14.620Z,27.10
2018-03-26T02:17:18.608Z,25.77
2018-03-26T02:18:21.837Z,24.87
2018-03-26T02:19:25.064Z,26.05
2018-03-26T02:20:28.276Z,24.95
2018-03-26T02:21:32.284Z,24.92
2018-03-26T02:22:35.518Z,25.40
2018-03-26T02:23:38.744Z,26.12
2018-03-26T02:24:42.045Z,26.37
2018-03-26T02:25:45.283Z,26.05
2018-03-26T02:26:48.624Z,27.77
2018-03-26T02:27:51.837Z,27.55
2018-03-26T02:28:55.057Z,26.25
2018-03-26T02:29:59.052Z,27.15
2018-03-26T02:31:03.046Z,26.65
2018-03-26T02:32:06.269Z,27.13
2018-03-26T02:33:09.494Z,25.70
2018-03-26T02:34:12.842Z,24.45
2018-03-26T02:35:16.100Z,29.70
2018-03-26T02:36:19.335Z,27.90
2018-03-26T02:37:22.563Z,27.50
2018-03-26T02:38:26.544Z,25.42
2018-03-26T02:39:30.595Z,25.75
2018-03-26T02:40:33.778Z,26.77
2018-03-26T02:41:37.007Z,25.83
2018-03-26T02:42:40.225Z,27.08
2018-03-26T02:43:43.444Z,25.80
2018-03-26T02:44:46.712Z,24.73
2018-03-26T02:45:49.912Z,24.60
2018-03-26T02:46:53.148Z,25.80
2018-03-26T02:47:56.377Z,23.55
2018-03-26T02:48:59.584Z,22.90
2018-03-26T02:50:02.883Z,22.35
2018-03-26T02:51:06.869Z,22.30
2018-03-26T02:52:10.866Z,22.67
2018-03-26T02:53:14.078Z,23.95
2018-03-26T02:54:17.288Z,23.77
2018-03-26T02:55:20.520Z,24.33
2018-03-26T02:56:23.780Z,22.62
2018-03-26T02:57:27.013Z,23.30
2018-03-26T02:58:30.249Z,21.70
2018-03-26T02:59:34.234Z,24.40
2018-03-26T03:00:38.123Z,24.35
2018-03-26T03:01:41.361Z,23.87
2018-03-26T03:02:45.337Z,23.48
2018-03-26T03:03:48.568Z,23.30
2018-03-26T03:04:51.792Z,24.05
2018-03-26T03:05:55.001Z,22.90
2018-03-26T03:06:59.005Z,23.85
2018-03-26T03:08:03.005Z,22.58
2018-03-26T03:09:07.047Z,24.23
2018-03-26T03:10:10.268Z,23.87
2018-03-26T03:11:13.493Z,22.80
2018-03-26T03:12:16.737Z,26.17
2018-03-26T03:13:20.054Z,24.37
2018-03-26T03:14:24.026Z,26.67
2018-03-26T03:15:27.394Z,23.33
2018-03-26T03:16:30.624Z,21.05
2018-03-26T03:17:34.603Z,24.75
2018-03-26T03:18:37.858Z,24.25
2018-03-26T03:19:41.076Z,25.83
2018-03-26T03:20:45.230Z,22.35
2018-03-26T03:21:48.440Z,22.27
2018-03-26T03:22:51.716Z,24.42
2018-03-26T03:23:54.956Z,22.90
2018-03-26T03:24:58.181Z,24.85
2018-03-26T03:26:01.429Z,26.50
2018-03-26T03:27:04.648Z,23.23
2018-03-26T03:28:07.872Z,23.33
2018-03-26T03:29:11.862Z,22.75
2018-03-26T03:30:15.846Z,23.77
2018-03-26T03:31:19.109Z,24.00
2018-03-26T03:32:22.303Z,23.98
2018-03-26T03:33:25.530Z,24.20
2018-03-26T03:34:28.756Z,23.50
2018-03-26T03:35:31.971Z,24.02
2018-03-26T03:36:35.947Z,24.20
2018-03-26T03:37:39.160Z,23.42
2018-03-26T03:38:42.405Z,23.00
2018-03-26T03:39:45.619Z,21.95
2018-03-26T03:40:48.921Z,25.02
2018-03-26T03:41:52.139Z,23.23
2018-03-26T03:42:55.366Z,23.98
2018-03-26T03:43:58.590Z,23.52
2018-03-26T03:45:01.806Z,24.55
2018-03-26T03:46:05.011Z,24.12
2018-03-26T03:47:09.035Z,26.58
2018-03-26T03:48:13.033Z,24.95
2018-03-26T03:49:17.033Z,24.52
2018-03-26T03:50:21.025Z,24.80
2018-03-26T03:51:25.022Z,23.73
2018-03-26T03:52:29.021Z,26.35
2018-03-26T03:53:33.017Z,25.30
2018-03-26T03:54:36.999Z,26.37
2018-03-26T03:55:40.325Z,24.77
2018-03-26T03:56:44.326Z,24.80
2018-03-26T03:57:48.334Z,24.58
2018-03-26T03:58:51.561Z,23.55
2018-03-26T03:59:54.795Z,25.45
2018-03-26T04:00:58.031Z,25.48
2018-03-26T04:02:01.257Z,26.42
2018-03-26T04:03:04.488Z,23.95
2018-03-26T04:04:07.708Z,26.95
2018-03-26T04:05:11.697Z,26.37
2018-03-26T04:06:15.710Z,25.70
2018-03-26T04:07:18.929Z,25.20
2018-03-26T04:08:22.166Z,24.90
2018-03-26T04:09:25.389Z,25.23
2018-03-26T04:10:28.608Z,25.83
2018-03-26T04:11:31.814Z,26.17
2018-03-26T04:12:35.818Z,25.15
2018-03-26T04:13:39.829Z,26.37
2018-03-26T04:14:43.816Z,26.45
2018-03-26T04:15:47.821Z,25.25
2018-03-26T04:16:51.798Z,26.12
2018-03-26T04:17:55.145Z,26.77
2018-03-26T04:18:59.088Z,26.17
2018-03-26T04:20:02.313Z,25.67
2018-03-26T04:21:05.543Z,26.40
2018-03-26T04:22:08.773Z,27.83
2018-03-26T04:23:11.983Z,26.02
2018-03-26T04:24:15.190Z,26.45
2018-03-26T04:25:18.449Z,25.92
2018-03-26T04:26:21.652Z,27.75
2018-03-26T04:27:24.885Z,26.52
2018-03-26T04:28:28.888Z,26.75
2018-03-26T04:29:32.115Z,26.23
2018-03-26T04:30:35.324Z,26.52
2018-03-26T04:31:39.308Z,25.88
2018-03-26T04:32:42.637Z,25.75
2018-03-26T04:33:45.879Z,25.15
2018-03-26T04:34:49.075Z,25.12
2018-03-26T04:35:52.280Z,25.05
2018-03-26T04:36:55.500Z,25.20
2018-03-26T04:37:58.726Z,24.75
2018-03-26T04:39:02.720Z,26.67
2018-03-26T04:40:50.721Z,27.45
2018-03-26T04:41:53.940Z,27.37
2018-03-26T04:42:57.147Z,27.65
2018-03-26T04:44:01.138Z,28.00
2018-03-26T04:45:05.114Z,26.92
2018-03-26T04:46:08.382Z,27.98
2018-03-26T04:47:12.314Z,26.62
2018-03-26T04:48:16.298Z,26.27
2018-03-26T04:49:19.528Z,26.23
2018-03-26T04:50:22.807Z,25.90
2018-03-26T04:51:26.085Z,26.62
2018-03-26T04:52:29.297Z,27.60
2018-03-26T04:53:32.531Z,26.12
2018-03-26T04:54:36.545Z,27.20
2018-03-26T04:55:40.529Z,25.52
2018-03-26T04:56:44.521Z,26.20
2018-03-26T04:57:48.511Z,26.90
2018-03-26T04:58:51.738Z,28.73
2018-03-26T04:59:54.962Z,27.08
2018-03-26T05:00:58.194Z,27.85
2018-03-26T05:02:02.217Z,29.17
2018-03-26T05:03:05.428Z,26.50
2018-03-26T05:04:08.664Z,26.17
2018-03-26T05:05:12.629Z,28.08
2018-03-26T05:06:16.618Z,26.98
2018-03-26T05:07:19.833Z,29.52
2018-03-26T05:08:23.813Z,28.70
2018-03-26T05:09:27.178Z,26.85
2018-03-26T05:10:30.380Z,28.15
2018-03-26T05:11:33.597Z,27.48
2018-03-26T05:12:37.601Z,27.08
2018-03-26T05:13:40.822Z,27.90
2018-03-26T05:14:44.032Z,29.37
2018-03-26T05:15:48.036Z,28.25
2018-03-26T05:16:52.077Z,29.02
2018-03-26T05:17:55.287Z,29.35
2018-03-26T05:18:58.524Z,27.77
2018-03-26T05:20:02.496Z,30.50
2018-03-26T05:21:05.737Z,28.10
2018-03-26T05:22:08.960Z,28.20
2018-03-26T05:23:12.969Z,27.35
2018-03-26T05:24:16.189Z,31.33
2018-03-26T05:25:19.459Z,29.30
2018-03-26T05:26:22.752Z,28.35
2018-03-26T05:27:25.966Z,26.30
2018-03-26T05:28:29.189Z,28.90
2018-03-26T05:29:32.397Z,29.27
2018-03-26T05:30:35.744Z,28.70
2018-03-26T05:31:38.944Z,29.65
2018-03-26T05:32:42.925Z,29.12
2018-03-26T05:33:46.152Z,32.53
2018-03-26T05:34:49.378Z,28.60
2018-03-26T05:35:52.601Z,27.73
2018-03-26T05:36:55.959Z,27.73
2018-03-26T05:37:59.149Z,28.80
2018-03-26T05:39:03.124Z,28.50
2018-03-26T05:40:06.356Z,29.27
2018-03-26T05:41:09.556Z,27.62
2018-03-26T05:42:12.786Z,29.58
2018-03-26T05:43:16.042Z,28.40
2018-03-26T05:44:19.245Z,29.85
2018-03-26T05:45:22.563Z,28.60
2018-03-26T05:46:26.560Z,28.42
2018-03-26T05:47:30.541Z,30.27
2018-03-26T05:48:33.783Z,29.83
2018-03-26T05:49:36.978Z,29.92
2018-03-26T05:50:40.228Z,31.37
2018-03-26T05:51:43.517Z,31.50
2018-03-26T05:52:46.748Z,28.58
2018-03-26T05:53:49.968Z,28.30
2018-03-26T05:54:53.215Z,29.73
2018-03-26T05:55:56.461Z,30.02
2018-03-26T05:56:59.662Z,29.23
2018-03-26T05:58:02.907Z,30.10
2018-03-26T05:59:06.883Z,30.23
2018-03-26T06:00:10.896Z,29.58
2018-03-26T06:01:14.873Z,28.48
2018-03-26T06:02:18.886Z,28.42
2018-03-26T06:03:22.093Z,30.62
2018-03-26T06:04:25.331Z,28.48
2018-03-26T06:05:28.547Z,29.05
2018-03-26T06:06:32.528Z,29.12
2018-03-26T06:07:36.535Z,29.50
2018-03-26T06:08:40.552Z,31.25
2018-03-26T06:09:44.528Z,29.27
2018-03-26T06:10:48.513Z,29.15
2018-03-26T06:11:51.745Z,28.08
2018-03-26T06:12:55.766Z,31.67
2018-03-26T06:13:58.964Z,30.00
2018-03-26T06:15:02.198Z,29.48
2018-03-26T06:16:05.464Z,30.92
2018-03-26T06:17:15.527Z,30.50
2018-03-26T06:18:18.785Z,28.55
2018-03-26T06:19:22.001Z,28.83
2018-03-26T06:20:25.282Z,30.35
2018-03-26T06:21:28.529Z,30.50
2018-03-26T06:22:31.745Z,30.90
2018-03-26T06:23:34.989Z,29.10
2018-03-26T06:24:38.210Z,28.42
2018-03-26T06:25:41.443Z,29.00
2018-03-26T06:26:44.659Z,28.65
2018-03-26T06:27:47.928Z,30.17
2018-03-26T06:28:51.196Z,27.65
2018-03-26T06:29:54.433Z,30.37
2018-03-26T06:30:57.683Z,29.77
2018-03-26T06:32:00.898Z,31.30
2018-03-26T06:33:04.132Z,29.60
2018-03-26T06:34:07.365Z,28.33
2018-03-26T06:35:10.592Z,29.67
2018-03-26T06:36:33.651Z,29.10
2018-03-26T06:37:42.564Z,29.12
2018-03-26T06:38:48.641Z,29.48
2018-03-26T06:39:52.648Z,29.80
2018-03-26T06:40:55.900Z,29.95
2018-03-26T06:41:59.205Z,30.20
2018-03-26T06:43:03.181Z,28.35
2018-03-26T06:44:06.492Z,30.15
2018-03-26T06:45:09.694Z,31.08
2018-03-26T06:46:12.909Z,29.67
2018-03-26T06:47:16.247Z,31.12
2018-03-26T06:48:20.224Z,30.25
2018-03-26T06:49:24.206Z,31.92
2018-03-26T06:50:27.465Z,32.42
2018-03-26T06:51:30.675Z,32.45
2018-03-26T06:52:33.926Z,30.33
2018-03-26T06:53:37.161Z,28.35
2018-03-26T06:54:41.143Z,32.67
2018-03-26T06:55:45.141Z,30.45
2018-03-26T06:56:48.371Z,28.87
2018-03-26T06:57:52.417Z,32.83
2018-03-26T06:58:55.599Z,32.22
2018-03-26T06:59:58.815Z,28.60
2018-03-26T07:01:02.840Z,28.77
2018-03-26T07:02:06.814Z,29.50
2018-03-26T07:03:10.809Z,31.33
2018-03-26T07:04:14.119Z,30.35
2018-03-26T07:06:28.428Z,30.50
2018-03-26T07:07:31.636Z,28.77
2018-03-26T07:08:35.648Z,30.80
2018-03-26T07:09:38.921Z,31.27
2018-03-26T07:10:42.924Z,29.73
2018-03-26T07:11:46.914Z,31.12
2018-03-26T07:12:50.901Z,29.42
2018-03-26T07:13:54.122Z,30.40
2018-03-26T07:14:57.359Z,32.67
2018-03-26T07:16:00.568Z,31.55
2018-03-26T07:17:04.566Z,29.48
2018-03-26T07:18:08.563Z,30.40
2018-03-26T07:19:12.595Z,29.70
2018-03-26T07:20:16.569Z,30.98
2018-03-26T07:21:20.558Z,29.95
2018-03-26T07:22:23.823Z,31.12
2018-03-26T07:23:27.035Z,30.08
2018-03-26T07:24:30.288Z,29.87
2018-03-26T07:25:33.540Z,29.75
2018-03-26T07:26:36.748Z,32.55
2018-03-26T07:27:39.972Z,30.15
2018-03-26T07:28:43.964Z,30.30
2018-03-26T07:29:47.942Z,31.55
2018-03-26T07:30:51.175Z,30.10
2018-03-26T07:31:54.385Z,30.45
2018-03-26T07:32:57.612Z,30.30
2018-03-26T07:34:00.835Z,30.80
2018-03-26T07:35:04.151Z,28.92
2018-03-26T07:36:08.130Z,30.58
2018-03-26T07:37:12.122Z,32.22
2018-03-26T07:38:16.125Z,31.08
2018-03-26T07:39:19.474Z,31.92
2018-03-26T07:40:22.690Z,30.15
2018-03-26T07:41:25.932Z,31.33
2018-03-26T07:42:29.187Z,33.75
2018-03-26T07:43:33.172Z,29.98
2018-03-26T07:44:36.388Z,31.25
2018-03-26T07:45:40.412Z,33.40
2018-03-26T07:46:43.685Z,31.08
2018-03-26T07:47:46.927Z,28.08
2018-03-26T07:48:50.158Z,29.45
2018-03-26T07:49:53.379Z,32.10
2018-03-26T07:50:56.698Z,31.98
2018-03-26T07:52:00.728Z,30.70
2018-03-26T07:53:04.676Z,33.03
2018-03-26T07:54:07.985Z,31.52
2018-03-26T07:55:11.981Z,29.08
2018-03-26T07:56:16.005Z,30.30
2018-03-26T07:57:19.232Z,31.27
2018-03-26T07:58:22.446Z,32.83
2018-03-26T07:59:25.674Z,29.92
2018-03-26T08:00:28.897Z,34.45
2018-03-26T08:01:32.222Z,32.83
2018-03-26T08:02:35.448Z,32.63
2018-03-26T08:03:38.681Z,30.48
2018-03-26T08:04:41.881Z,30.85
2018-03-26T08:05:45.103Z,33.95
2018-03-26T08:06:49.119Z,32.03
2018-03-26T08:07:52.374Z,32.78
2018-03-26T08:08:56.361Z,31.45
2018-03-26T08:10:00.345Z,31.00
2018-03-26T08:11:04.356Z,29.42
2018-03-26T08:12:08.379Z,31.45
2018-03-26T08:13:12.364Z,29.92
2018-03-26T08:14:16.356Z,30.95
2018-03-26T08:15:20.346Z,31.98
2018-03-26T08:16:23.582Z,31.23
2018-03-26T08:17:26.917Z,30.73
2018-03-26T08:18:30.145Z,31.17
2018-03-26T08:20:48.283Z,30.80
2018-03-26T08:21:52.554Z,30.88
2018-03-26T08:22:55.827Z,31.50
2018-03-26T08:23:59.787Z,29.98
2018-03-26T08:25:03.683Z,28.65
2018-03-26T08:26:09.483Z,30.15
2018-03-26T08:27:13.496Z,31.70
2018-03-26T08:28:17.465Z,32.05
2018-03-26T08:29:20.787Z,29.12
2018-03-26T08:30:24.011Z,29.15
2018-03-26T08:31:27.245Z,29.35
2018-03-26T08:32:30.496Z,28.17
2018-03-26T08:33:33.743Z,31.35
2018-03-26T08:34:37.757Z,29.23
2018-03-26T08:35:41.760Z,30.55
2018-03-26T08:36:44.985Z,29.73
2018-03-26T08:37:48.281Z,29.45
2018-03-26T08:38:51.506Z,29.02
2018-03-26T08:39:54.720Z,28.83
2018-03-26T08:40:57.953Z,30.20
2018-03-26T08:42:01.945Z,29.35
2018-03-26T08:43:05.926Z,29.98
2018-03-26T08:44:09.160Z,32.42
2018-03-26T08:45:12.395Z,29.02
2018-03-26T08:46:15.630Z,28.10
2018-03-26T08:47:19.616Z,29.40
2018-03-26T08:48:22.836Z,31.00
2018-03-26T08:49:26.070Z,29.20
2018-03-26T08:50:29.306Z,29.08
2018-03-26T08:51:32.504Z,28.75
2018-03-26T08:52:35.753Z,29.23
2018-03-26T08:53:39.038Z,29.50
2018-03-26T08:54:42.210Z,28.00
2018-03-26T08:55:46.180Z,27.58
2018-03-26T08:56:51.580Z,30.52
2018-03-26T08:57:55.017Z,28.62
2018-03-26T08:58:58.997Z,30.48
2018-03-26T09:00:02.976Z,30.55
2018-03-26T09:01:06.212Z,27.08
2018-03-26T09:02:10.156Z,31.25
2018-03-26T09:03:13.364Z,29.25
2018-03-26T09:04:16.586Z,27.23
2018-03-26T09:05:19.834Z,27.17
2018-03-26T09:06:23.101Z,28.30
2018-03-26T09:07:36.643Z,28.42
2018-03-26T09:08:39.869Z,29.30
2018-03-26T09:09:43.849Z,28.58
2018-03-26T09:10:47.076Z,27.75
2018-03-26T09:11:50.326Z,29.10
2018-03-26T09:12:53.530Z,30.15
2018-03-26T09:13:57.510Z,28.25
2018-03-26T09:15:00.735Z,27.37
2018-03-26T09:16:03.961Z,27.45
2018-03-26T09:17:07.197Z,28.52
2018-03-26T09:18:10.438Z,29.27
2018-03-26T09:19:13.638Z,28.62
2018-03-26T09:20:17.626Z,29.80
2018-03-26T09:21:20.843Z,30.35
2018-03-26T09:22:24.051Z,28.10
2018-03-26T09:23:27.290Z,28.20
2018-03-26T09:24:31.294Z,29.02
2018-03-26T09:25:35.283Z,27.13
2018-03-26T09:26:39.292Z,28.00
2018-03-26T09:27:42.502Z,26.65
2018-03-26T09:28:45.742Z,27.80
2018-03-26T09:29:49.854Z,27.52
2018-03-26T09:30:53.839Z,27.92
2018-03-26T09:31:57.035Z,30.15
2018-03-26T09:33:01.015Z,29.17
2018-03-26T09:34:04.231Z,27.42
2018-03-26T09:35:08.214Z,29.45
2018-03-26T09:36:12.204Z,27.95
2018-03-26T09:37:16.194Z,28.87
2018-03-26T09:38:19.438Z,29.50
2018-03-26T09:39:22.689Z,29.87
2018-03-26T09:40:26.684Z,30.17
2018-03-26T09:41:29.905Z,29.15
2018-03-26T09:42:33.129Z,30.08
2018-03-26T09:43:36.349Z,28.12
2018-03-26T09:44:40.324Z,31.08
2018-03-26T09:45:44.356Z,29.90
2018-03-26T09:46:47.597Z,29.42
2018-03-26T09:47:50.817Z,30.10
2018-03-26T09:48:54.150Z,29.75
2018-03-26T09:49:57.381Z,28.52
2018-03-26T09:51:01.352Z,28.15
2018-03-26T09:52:04.587Z,27.73
2018-03-26T09:53:07.808Z,26.85
2018-03-26T09:54:11.037Z,29.17
2018-03-26T09:55:14.269Z,30.25
2018-03-26T09:56:17.505Z,29.58
2018-03-26T09:57:20.745Z,28.62
2018-03-26T09:58:23.979Z,28.38
2018-03-26T09:59:27.190Z,26.98
2018-03-26T10:00:36.236Z,29.00
2018-03-26T10:01:45.749Z,28.15
2018-03-26T10:02:48.981Z,27.58
2018-03-26T10:03:52.207Z,29.48
2018-03-26T10:04:55.486Z,28.52
2018-03-26T10:05:58.703Z,30.05
2018-03-26T10:07:01.937Z,28.70
2018-03-26T10:08:05.207Z,30.33
2018-03-26T10:09:08.430Z,28.67
2018-03-26T10:10:11.644Z,28.92
2018-03-26T10:11:14.878Z,28.27
2018-03-26T10:12:18.097Z,27.02
2018-03-26T10:13:22.133Z,29.30
2018-03-26T10:14:26.085Z,29.42
2018-03-26T10:15:29.302Z,27.08
2018-03-26T10:16:33.281Z,30.25
2018-03-26T10:17:37.334Z,28.58
2018-03-26T10:18:40.588Z,27.02
2018-03-26T10:19:44.578Z,29.60
2018-03-26T10:20:48.559Z,28.20
2018-03-26T10:21:51.777Z,29.12
2018-03-26T10:22:55.011Z,29.92
2018-03-26T10:23:58.244Z,29.00
2018-03-26T10:25:01.462Z,28.67
2018-03-26T10:26:04.711Z,31.62
2018-03-26T10:27:07.927Z,28.87
2018-03-26T10:28:11.175Z,29.48
2018-03-26T10:29:14.462Z,28.70
2018-03-26T10:30:17.755Z,29.83
2018-03-26T10:31:21.002Z,29.83
2018-03-26T10:32:24.230Z,27.83
2018-03-26T10:33:27.457Z,28.60
2018-03-26T10:34:31.493Z,27.70
2018-03-26T10:35:34.714Z,27.90
2018-03-26T10:36:37.920Z,29.65
2018-03-26T10:37:41.163Z,28.65
2018-03-26T10:38:44.406Z,30.30
2018-03-26T10:39:48.422Z,29.23
2018-03-26T10:40:51.679Z,29.00
2018-03-26T10:41:54.935Z,28.85
2018-03-26T10:42:58.154Z,29.25
2018-03-26T10:44:02.188Z,28.35
2018-03-26T10:45:05.415Z,29.23
2018-03-26T10:46:08.665Z,31.30
2018-03-26T10:47:11.886Z,30.65
2018-03-26T10:48:15.099Z,29.02
2018-03-26T10:49:18.337Z,29.10
2018-03-26T10:50:21.564Z,29.37
2018-03-26T10:51:24.859Z,30.35
2018-03-26T10:52:28.099Z,30.50
2018-03-26T10:53:31.329Z,28.60
2018-03-26T10:54:34.562Z,28.12
2018-03-26T10:55:37.883Z,28.08
2018-03-26T10:56:41.169Z,30.17
2018-03-26T10:57:44.420Z,30.17
2018-03-26T10:58:47.632Z,30.10
2018-03-26T10:59:50.877Z,30.00
2018-03-26T11:00:54.105Z,28.95
2018-03-26T11:01:57.333Z,31.85
2018-03-26T11:03:00.548Z,30.23
2018-03-26T11:04:04.529Z,29.85
2018-03-26T11:05:07.786Z,30.12
2018-03-26T11:06:11.028Z,29.08
2018-03-26T11:07:14.279Z,32.28
2018-03-26T11:08:17.486Z,31.92
2018-03-26T11:09:21.472Z,31.75
2018-03-26T11:10:25.568Z,30.35
2018-03-26T11:11:29.562Z,30.55
2018-03-26T11:12:32.825Z,29.17
2018-03-26T11:13:36.076Z,30.27
2018-03-26T11:14:39.290Z,30.45
2018-03-26T11:15:42.528Z,31.30
2018-03-26T11:16:45.760Z,32.45
2018-03-26T11:17:49.900Z,30.37
2018-03-26T11:18:53.896Z,28.95
2018-03-26T11:19:57.893Z,29.60
2018-03-26T11:21:01.921Z,30.98
2018-03-26T11:22:05.141Z,33.22
2018-03-26T11:23:08.354Z,30.90
2018-03-26T11:24:12.350Z,29.90
2018-03-26T11:25:15.604Z,28.55
2018-03-26T11:26:18.838Z,30.60
2018-03-26T11:27:22.845Z,28.17
2018-03-26T11:28:26.857Z,28.30
2018-03-26T11:29:30.102Z,29.60
2018-03-26T11:30:33.316Z,29.20
2018-03-26T11:31:36.563Z,28.25
2018-03-26T11:32:39.807Z,29.60
2018-03-26T11:33:43.017Z,29.45
2018-03-26T11:34:46.266Z,26.98
2018-03-26T11:35:49.509Z,27.83
2018-03-26T11:36:52.741Z,31.52
2018-03-26T11:37:55.982Z,30.27
2018-03-26T11:38:59.996Z,31.48
2018-03-26T11:40:03.261Z,28.45
2018-03-26T11:41:06.472Z,30.83
2018-03-26T11:42:09.704Z,29.50
2018-03-26T11:43:12.924Z,30.30
2018-03-26T11:44:16.913Z,30.02
2018-03-26T11:45:20.892Z,27.83
2018-03-26T11:46:24.888Z,26.20
2018-03-26T11:47:28.140Z,29.48
2018-03-26T11:48:31.336Z,31.77
2018-03-26T11:49:34.729Z,28.35
2018-03-26T11:50:38.610Z,29.27
2018-03-26T11:51:41.826Z,28.52
2018-03-26T11:52:45.061Z,28.98
2018-03-26T11:53:48.321Z,27.27
2018-03-26T11:54:51.533Z,29.63
2018-03-26T11:55:54.775Z,28.02
2018-03-26T11:56:57.983Z,30.75
2018-03-26T11:58:01.212Z,28.12
2018-03-26T11:59:04.512Z,29.48
2018-03-26T12:00:07.739Z,29.20
2018-03-26T12:01:10.979Z,30.33
2018-03-26T12:02:14.216Z,29.35
2018-03-26T12:03:17.455Z,30.85
2018-03-26T12:04:21.445Z,31.12
2018-03-26T12:05:24.672Z,28.08
2018-03-26T12:06:27.932Z,33.10
2018-03-26T12:07:31.922Z,27.80
2018-03-26T12:08:35.135Z,28.80
2018-03-26T12:09:38.350Z,28.27
2018-03-26T12:10:41.605Z,29.58
2018-03-26T12:11:44.833Z,28.00
2018-03-26T12:12:48.063Z,31.85
2018-03-26T12:13:51.311Z,29.50
2018-03-26T12:14:55.384Z,27.87
2018-03-26T12:15:59.329Z,29.80
2018-03-26T12:17:03.296Z,29.27
2018-03-26T12:18:06.521Z,27.65
2018-03-26T12:19:09.805Z,30.83
2018-03-26T12:20:25.739Z,28.55
2018-03-26T12:21:28.928Z,31.00
2018-03-26T12:22:32.155Z,30.17
2018-03-26T12:23:47.131Z,27.75
2018-03-26T12:25:00.240Z,29.00
2018-03-26T12:26:03.473Z,28.55
2018-03-26T12:27:06.693Z,31.98
2018-03-26T12:28:21.748Z,38.47
2018-03-26T12:29:36.965Z,39.25
2018-03-26T12:30:40.160Z,32.70
2018-03-26T12:31:43.393Z,28.30
2018-03-26T12:32:46.650Z,29.12
2018-03-26T12:34:02.776Z,31.02
2018-03-26T12:35:17.928Z,29.90
2018-03-26T12:36:21.170Z,30.80
2018-03-26T12:37:24.377Z,28.67
2018-03-26T12:38:27.608Z,27.48
2018-03-26T12:39:30.830Z,28.58
2018-03-26T12:40:46.745Z,30.50
2018-03-26T12:41:50.012Z,30.23
2018-03-26T12:42:53.234Z,28.73
2018-03-26T12:43:56.455Z,28.92
2018-03-26T12:45:12.295Z,28.20
2018-03-26T12:46:27.256Z,27.65
2018-03-26T12:47:30.503Z,28.70
2018-03-26T12:48:33.729Z,29.35
2018-03-26T12:49:36.944Z,31.95
2018-03-26T12:50:52.063Z,30.30
2018-03-26T12:52:07.105Z,28.80
2018-03-26T12:53:10.315Z,29.58
2018-03-26T12:54:13.544Z,30.23
2018-03-26T12:55:16.776Z,29.37
2018-03-26T12:56:20.000Z,29.05
2018-03-26T12:57:35.192Z,29.90
2018-03-26T12:58:44.932Z,28.50
2018-03-26T12:59:48.149Z,27.73
2018-03-26T13:01:03.313Z,27.83
2018-03-26T13:02:18.496Z,30.95
2018-03-26T13:03:21.729Z,27.67
2018-03-26T13:04:24.921Z,30.20
2018-03-26T13:05:28.158Z,29.35
2018-03-26T13:06:31.386Z,27.13
2018-03-26T13:07:34.617Z,30.10
2018-03-26T13:08:37.832Z,28.58
2018-03-26T13:09:41.783Z,26.50
2018-03-26T13:10:45.778Z,26.90
2018-03-26T13:11:49.785Z,27.27
2018-03-26T13:12:53.785Z,26.05
2018-03-26T13:13:57.792Z,24.73
2018-03-26T13:15:01.756Z,25.65
2018-03-26T13:16:04.996Z,27.75
2018-03-26T13:17:08.223Z,28.42
2018-03-26T13:18:11.450Z,28.52
2018-03-26T13:19:15.467Z,27.20
2018-03-26T13:20:18.701Z,28.70
2018-03-26T13:21:21.910Z,27.58
2018-03-26T13:22:25.892Z,26.20
2018-03-26T13:23:29.874Z,28.38
2018-03-26T13:24:33.121Z,28.35
2018-03-26T13:25:36.343Z,27.35
2018-03-26T13:26:39.556Z,26.60
2018-03-26T13:27:43.540Z,28.80
2018-03-26T13:28:46.827Z,30.37
2018-03-26T13:29:50.089Z,29.10
2018-03-26T13:30:53.330Z,28.50
2018-03-26T13:31:56.542Z,29.02
2018-03-26T13:32:59.761Z,30.52
2018-03-26T13:34:03.764Z,30.48
2018-03-26T13:35:07.736Z,29.92
2018-03-26T13:36:10.962Z,31.67
2018-03-26T13:37:15.107Z,29.33
2018-03-26T13:38:18.342Z,32.03
2018-03-26T13:39:22.323Z,31.02
2018-03-26T13:40:25.545Z,33.10
2018-03-26T13:41:28.773Z,31.45
2018-03-26T13:42:32.006Z,29.95
2018-03-26T13:43:35.243Z,31.15
2018-03-26T13:44:38.471Z,30.00